sensor_id;sensor_type;location;lat;lon;timestamp;pressure;altitude;pressure_sealevel;temperature;humidity
7376;BME280;3728;42.266;24.944;2023-01-29T00:00:11;99717.97;;;3.18;100.00
7376;BME280;3728;42.266;24.944;2023-01-29T00:02:39;99717.63;;;3.41;100.00
7376;BME280;3728;42.266;24.944;2023-01-29T00:05:08;99725.25;;;3.21;100.00
7376;BME280;3728;42.266;24.944;2023-01-29T00:07:53;99723.81;;;3.35;100.00
7376;BME280;3728;42.266;24.944;2023-01-29T00:10:23;99726.69;;;3.76;100.00
7376;BME280;3728;42.266;24.944;2023-01-29T00:12:54;99724.38;;;3.74;100.00
7376;BME280;3728;42.266;24.944;2023-01-29T00:15:21;99728.63;;;3.95;100.00
7376;BME280;3728;42.266;24.944;2023-01-29T00:17:49;99724.22;;;3.91;100.00
7376;BME280;3728;42.266;24.944;2023-01-29T00:20:16;99737.72;;;3.98;100.00
7376;BME280;3728;42.266;24.944;2023-01-29T00:22:44;99740.91;;;4.15;100.00
7376;BME280;3728;42.266;24.944;2023-01-29T00:25:12;99741.06;;;3.98;100.00
7376;BME280;3728;42.266;24.944;2023-01-29T00:27:39;99756.47;;;4.20;100.00
7376;BME280;3728;42.266;24.944;2023-01-29T00:30:08;99757.94;;;4.01;100.00
7376;BME280;3728;42.266;24.944;2023-01-29T00:32:39;99757.91;;;3.96;100.00
7376;BME280;3728;42.266;24.944;2023-01-29T00:35:08;99761.28;;;3.96;100.00
7376;BME280;3728;42.266;24.944;2023-01-29T00:37:35;99756.94;;;4.07;100.00
7376;BME280;3728;42.266;24.944;2023-01-29T00:40:04;99753.56;;;4.06;100.00
7376;BME280;3728;42.266;24.944;2023-01-29T00:42:32;99763.19;;;4.11;100.00
7376;BME280;3728;42.266;24.944;2023-01-29T00:45:18;99761.13;;;4.18;100.00
7376;BME280;3728;42.266;24.944;2023-01-29T00:47:45;99757.00;;;4.22;98.01
7376;BME280;3728;42.266;24.944;2023-01-29T00:50:13;99758.06;;;4.21;97.86
7376;BME280;3728;42.266;24.944;2023-01-29T00:52:42;99759.34;;;4.19;97.33
7376;BME280;3728;42.266;24.944;2023-01-29T00:55:10;99762.09;;;4.54;94.81
7376;BME280;3728;42.266;24.944;2023-01-29T00:57:38;99757.63;;;4.44;94.01
7376;BME280;3728;42.266;24.944;2023-01-29T01:00:08;99761.47;;;4.32;94.67
7376;BME280;3728;42.266;24.944;2023-01-29T01:02:37;99766.41;;;4.38;95.27
7376;BME280;3728;42.266;24.944;2023-01-29T01:05:25;99759.19;;;4.45;93.93
7376;BME280;3728;42.266;24.944;2023-01-29T01:07:55;99763.94;;;4.73;91.83
7376;BME280;3728;42.266;24.944;2023-01-29T01:10:31;99763.25;;;4.26;93.84
7376;BME280;3728;42.266;24.944;2023-01-29T01:13:06;99765.31;;;4.24;94.23
7376;BME280;3728;42.266;24.944;2023-01-29T01:15:36;99761.41;;;4.17;94.04
7376;BME280;3728;42.266;24.944;2023-01-29T01:18:05;99755.91;;;4.08;94.89
7376;BME280;3728;42.266;24.944;2023-01-29T01:20:34;99761.50;;;4.42;93.02
7376;BME280;3728;42.266;24.944;2023-01-29T01:23:02;99763.91;;;4.58;92.02
7376;BME280;3728;42.266;24.944;2023-01-29T01:25:30;99762.31;;;4.47;91.96
7376;BME280;3728;42.266;24.944;2023-01-29T01:27:59;99758.69;;;4.48;91.79
7376;BME280;3728;42.266;24.944;2023-01-29T01:30:26;99762.31;;;4.42;91.72
7376;BME280;3728;42.266;24.944;2023-01-29T01:32:54;99762.22;;;4.27;92.35
7376;BME280;3728;42.266;24.944;2023-01-29T01:35:22;99759.34;;;4.19;93.57
7376;BME280;3728;42.266;24.944;2023-01-29T01:37:49;99761.50;;;4.37;93.47
7376;BME280;3728;42.266;24.944;2023-01-29T01:40:19;99767.94;;;4.29;93.48
7376;BME280;3728;42.266;24.944;2023-01-29T01:42:49;99765.84;;;4.26;95.01
7376;BME280;3728;42.266;24.944;2023-01-29T01:50:53;99770.97;;;4.16;97.28
7376;BME280;3728;42.266;24.944;2023-01-29T01:56:07;99768.91;;;4.18;97.38
7376;BME280;3728;42.266;24.944;2023-01-29T01:58:40;99769.53;;;4.35;96.93
7376;BME280;3728;42.266;24.944;2023-01-29T02:01:10;99777.81;;;4.32;96.96
7376;BME280;3728;42.266;24.944;2023-01-29T02:03:49;99777.81;;;4.37;95.86
7376;BME280;3728;42.266;24.944;2023-01-29T02:07:00;99779.59;;;4.32;94.74
7376;BME280;3728;42.266;24.944;2023-01-29T02:09:52;99778.84;;;4.36;94.43
7376;BME280;3728;42.266;24.944;2023-01-29T02:12:26;99774.47;;;4.42;96.03
7376;BME280;3728;42.266;24.944;2023-01-29T02:14:57;99778.84;;;4.36;94.17
7376;BME280;3728;42.266;24.944;2023-01-29T02:17:25;99783.59;;;4.49;93.24
7376;BME280;3728;42.266;24.944;2023-01-29T02:20:15;99781.78;;;4.55;92.29
7376;BME280;3728;42.266;24.944;2023-01-29T02:32:00;99797.09;;;4.51;92.83
7376;BME280;3728;42.266;24.944;2023-01-29T02:35:08;99798.84;;;4.46;93.88
7376;BME280;3728;42.266;24.944;2023-01-29T02:38:00;99805.84;;;4.45;93.74
7376;BME280;3728;42.266;24.944;2023-01-29T02:45:59;99799.59;;;4.36;95.62
7376;BME280;3728;42.266;24.944;2023-01-29T02:48:58;99805.84;;;4.45;95.02
7376;BME280;3728;42.266;24.944;2023-01-29T02:52:01;99805.34;;;4.48;94.63
7376;BME280;3728;42.266;24.944;2023-01-29T02:54:53;99803.53;;;4.44;94.41
7376;BME280;3728;42.266;24.944;2023-01-29T02:57:36;99810.28;;;4.45;95.51
7376;BME280;3728;42.266;24.944;2023-01-29T03:03:06;99804.91;;;4.61;94.08
7376;BME280;3728;42.266;24.944;2023-01-29T03:05:48;99810.56;;;4.53;94.25
7376;BME280;3728;42.266;24.944;2023-01-29T03:08:38;99809.50;;;4.44;95.26
7376;BME280;3728;42.266;24.944;2023-01-29T03:11:13;99823.47;;;4.43;96.40
7376;BME280;3728;42.266;24.944;2023-01-29T03:13:54;99815.16;;;4.36;95.42
7376;BME280;3728;42.266;24.944;2023-01-29T03:16:32;99819.91;;;4.49;95.57
7376;BME280;3728;42.266;24.944;2023-01-29T03:19:19;99821.41;;;4.45;95.71
7376;BME280;3728;42.266;24.944;2023-01-29T03:21:58;99829.69;;;4.37;95.19
7376;BME280;3728;42.266;24.944;2023-01-29T03:27:29;99829.75;;;4.47;95.09
7376;BME280;3728;42.266;24.944;2023-01-29T03:30:24;99831.56;;;4.47;95.91
7376;BME280;3728;42.266;24.944;2023-01-29T03:33:25;99831.06;;;4.50;94.75
7376;BME280;3728;42.266;24.944;2023-01-29T03:35:59;99835.00;;;4.67;93.93
7376;BME280;3728;42.266;24.944;2023-01-29T03:38:31;99839.09;;;4.53;94.40
7376;BME280;3728;42.266;24.944;2023-01-29T03:41:09;99828.47;;;4.50;95.23
7376;BME280;3728;42.266;24.944;2023-01-29T03:52:44;99837.13;;;4.80;92.92
7376;BME280;3728;42.266;24.944;2023-01-29T03:55:42;99838.63;;;4.61;93.65
7376;BME280;3728;42.266;24.944;2023-01-29T03:58:44;99839.56;;;4.40;96.29
7376;BME280;3728;42.266;24.944;2023-01-29T04:01:31;99838.03;;;4.44;97.18
7376;BME280;3728;42.266;24.944;2023-01-29T04:04:17;99838.41;;;4.21;97.35
7376;BME280;3728;42.266;24.944;2023-01-29T04:06:54;99839.16;;;4.17;99.17
7376;BME280;3728;42.266;24.944;2023-01-29T04:09:31;99847.78;;;4.32;99.04
7376;BME280;3728;42.266;24.944;2023-01-29T04:12:07;99844.91;;;4.29;97.45
7376;BME280;3728;42.266;24.944;2023-01-29T04:14:38;99847.22;;;4.25;97.86
7376;BME280;3728;42.266;24.944;2023-01-29T04:17:16;99841.25;;;4.25;97.93
7376;BME280;3728;42.266;24.944;2023-01-29T04:19:59;99849.88;;;4.30;98.28
7376;BME280;3728;42.266;24.944;2023-01-29T04:22:33;99851.19;;;4.33;98.41
7376;BME280;3728;42.266;24.944;2023-01-29T04:25:07;99854.84;;;4.42;97.63
7376;BME280;3728;42.266;24.944;2023-01-29T04:28:06;99855.69;;;4.52;95.42
7376;BME280;3728;42.266;24.944;2023-01-29T04:31:01;99857.81;;;4.60;97.21
7376;BME280;3728;42.266;24.944;2023-01-29T04:33:42;99857.28;;;4.58;95.17
7376;BME280;3728;42.266;24.944;2023-01-29T04:36:29;99864.69;;;4.40;97.55
7376;BME280;3728;42.266;24.944;2023-01-29T04:39:23;99867.50;;;4.33;98.01
7376;BME280;3728;42.266;24.944;2023-01-29T04:45:09;99864.28;;;4.16;99.20
7376;BME280;3728;42.266;24.944;2023-01-29T04:50:55;99866.72;;;3.96;100.00
7376;BME280;3728;42.266;24.944;2023-01-29T04:56:35;99890.06;;;4.01;100.00
7376;BME280;3728;42.266;24.944;2023-01-29T04:59:22;99879.53;;;4.12;100.00
7376;BME280;3728;42.266;24.944;2023-01-29T05:02:07;99886.34;;;3.87;100.00
7376;BME280;3728;42.266;24.944;2023-01-29T05:04:38;99891.66;;;3.75;100.00
7376;BME280;3728;42.266;24.944;2023-01-29T05:07:10;99887.72;;;3.68;100.00
7376;BME280;3728;42.266;24.944;2023-01-29T05:09:41;99893.19;;;3.44;100.00
7376;BME280;3728;42.266;24.944;2023-01-29T05:12:13;99891.97;;;3.52;100.00
7376;BME280;3728;42.266;24.944;2023-01-29T05:14:43;99900.75;;;3.51;100.00
7376;BME280;3728;42.266;24.944;2023-01-29T05:17:17;99899.72;;;3.25;100.00
7376;BME280;3728;42.266;24.944;2023-01-29T05:19:46;99906.28;;;3.33;100.00
7376;BME280;3728;42.266;24.944;2023-01-29T05:22:17;99909.03;;;3.48;100.00
7376;BME280;3728;42.266;24.944;2023-01-29T05:24:49;99913.09;;;3.39;100.00
7376;BME280;3728;42.266;24.944;2023-01-29T05:27:23;99915.09;;;3.37;100.00
7376;BME280;3728;42.266;24.944;2023-01-29T05:30:16;99914.50;;;3.52;100.00
7376;BME280;3728;42.266;24.944;2023-01-29T05:32:44;99922.66;;;3.65;100.00
7376;BME280;3728;42.266;24.944;2023-01-29T05:35:12;99921.38;;;3.68;100.00
7376;BME280;3728;42.266;24.944;2023-01-29T05:37:39;99922.00;;;3.80;100.00
7376;BME280;3728;42.266;24.944;2023-01-29T05:40:07;99929.06;;;3.84;100.00
7376;BME280;3728;42.266;24.944;2023-01-29T05:42:35;99927.72;;;3.77;100.00
7376;BME280;3728;42.266;24.944;2023-01-29T05:45:03;99931.47;;;3.91;100.00
7376;BME280;3728;42.266;24.944;2023-01-29T05:47:31;99937.19;;;3.93;100.00
7376;BME280;3728;42.266;24.944;2023-01-29T05:49:59;99936.78;;;3.79;100.00
7376;BME280;3728;42.266;24.944;2023-01-29T05:52:27;99939.28;;;3.69;100.00
7376;BME280;3728;42.266;24.944;2023-01-29T05:54:55;99944.16;;;3.66;100.00
7376;BME280;3728;42.266;24.944;2023-01-29T05:57:22;99940.91;;;3.54;100.00
7376;BME280;3728;42.266;24.944;2023-01-29T05:59:50;99952.25;;;4.01;100.00
7376;BME280;3728;42.266;24.944;2023-01-29T06:02:17;99950.31;;;3.86;100.00
7376;BME280;3728;42.266;24.944;2023-01-29T06:04:45;99950.94;;;3.98;100.00
7376;BME280;3728;42.266;24.944;2023-01-29T06:07:12;99956.91;;;3.99;100.00
7376;BME280;3728;42.266;24.944;2023-01-29T06:09:40;99959.38;;;3.84;100.00
7376;BME280;3728;42.266;24.944;2023-01-29T06:12:07;99951.91;;;3.66;100.00
7376;BME280;3728;42.266;24.944;2023-01-29T06:14:37;99955.91;;;3.52;100.00
7376;BME280;3728;42.266;24.944;2023-01-29T06:17:05;99962.66;;;3.74;100.00
7376;BME280;3728;42.266;24.944;2023-01-29T06:19:32;99971.75;;;3.82;100.00
7376;BME280;3728;42.266;24.944;2023-01-29T06:22:00;99968.41;;;3.81;100.00
7376;BME280;3728;42.266;24.944;2023-01-29T06:24:28;99970.78;;;3.61;100.00
7376;BME280;3728;42.266;24.944;2023-01-29T06:26:55;99977.22;;;3.59;100.00
7376;BME280;3728;42.266;24.944;2023-01-29T06:29:23;99976.72;;;3.83;100.00
7376;BME280;3728;42.266;24.944;2023-01-29T06:31:53;99978.38;;;3.94;100.00
7376;BME280;3728;42.266;24.944;2023-01-29T06:34:20;99979.59;;;3.87;100.00
7376;BME280;3728;42.266;24.944;2023-01-29T06:36:48;99983.91;;;3.76;100.00
7376;BME280;3728;42.266;24.944;2023-01-29T06:39:15;99988.50;;;3.96;100.00
7376;BME280;3728;42.266;24.944;2023-01-29T06:41:43;99997.13;;;3.80;100.00
7376;BME280;3728;42.266;24.944;2023-01-29T06:44:12;99997.19;;;3.85;100.00
7376;BME280;3728;42.266;24.944;2023-01-29T06:46:40;99997.38;;;3.78;100.00
7376;BME280;3728;42.266;24.944;2023-01-29T06:49:07;100001.72;;;3.73;100.00
7376;BME280;3728;42.266;24.944;2023-01-29T06:51:36;100001.63;;;3.63;100.00
7376;BME280;3728;42.266;24.944;2023-01-29T06:54:03;100002.75;;;3.72;100.00
7376;BME280;3728;42.266;24.944;2023-01-29T06:56:34;100002.34;;;3.58;100.00
7376;BME280;3728;42.266;24.944;2023-01-29T06:59:01;100008.97;;;3.49;100.00
7376;BME280;3728;42.266;24.944;2023-01-29T07:01:30;100004.22;;;3.63;100.00
7376;BME280;3728;42.266;24.944;2023-01-29T07:04:03;100005.16;;;3.78;100.00
7376;BME280;3728;42.266;24.944;2023-01-29T07:06:31;100010.47;;;3.67;100.00
7376;BME280;3728;42.266;24.944;2023-01-29T07:08:59;100010.22;;;3.68;100.00
7376;BME280;3728;42.266;24.944;2023-01-29T07:11:35;100015.78;;;3.77;100.00
7376;BME280;3728;42.266;24.944;2023-01-29T07:14:03;100021.91;;;3.71;100.00
7376;BME280;3728;42.266;24.944;2023-01-29T07:16:31;100020.44;;;3.80;100.00
7376;BME280;3728;42.266;24.944;2023-01-29T07:19:00;100021.56;;;3.84;100.00
7376;BME280;3728;42.266;24.944;2023-01-29T07:21:27;100022.56;;;3.83;100.00
7376;BME280;3728;42.266;24.944;2023-01-29T07:23:55;100019.97;;;3.83;100.00
7376;BME280;3728;42.266;24.944;2023-01-29T07:26:23;100025.59;;;4.01;100.00
7376;BME280;3728;42.266;24.944;2023-01-29T07:28:50;100025.94;;;4.10;100.00
7376;BME280;3728;42.266;24.944;2023-01-29T07:31:18;100028.97;;;4.29;100.00
7376;BME280;3728;42.266;24.944;2023-01-29T07:33:47;100026.88;;;4.57;100.00
7376;BME280;3728;42.266;24.944;2023-01-29T07:36:14;100027.88;;;4.51;100.00
7376;BME280;3728;42.266;24.944;2023-01-29T07:38:42;100025.78;;;4.80;100.00
7376;BME280;3728;42.266;24.944;2023-01-29T07:41:10;100020.50;;;4.70;100.00
7376;BME280;3728;42.266;24.944;2023-01-29T07:43:38;100027.88;;;4.51;100.00
7376;BME280;3728;42.266;24.944;2023-01-29T07:46:05;100025.38;;;4.66;100.00
7376;BME280;3728;42.266;24.944;2023-01-29T07:48:35;100025.19;;;4.73;100.00
7376;BME280;3728;42.266;24.944;2023-01-29T07:51:03;100031.94;;;4.74;100.00
7376;BME280;3728;42.266;24.944;2023-01-29T07:53:31;100034.56;;;4.79;100.00
7376;BME280;3728;42.266;24.944;2023-01-29T07:55:58;100035.50;;;5.00;100.00
7376;BME280;3728;42.266;24.944;2023-01-29T07:58:26;100034.88;;;4.82;100.00
7376;BME280;3728;42.266;24.944;2023-01-29T08:00:53;100038.44;;;4.76;100.00
7376;BME280;3728;42.266;24.944;2023-01-29T08:03:21;100044.31;;;4.99;100.00
7376;BME280;3728;42.266;24.944;2023-01-29T08:05:48;100040.06;;;4.82;100.00
7376;BME280;3728;42.266;24.944;2023-01-29T08:08:16;100040.28;;;4.81;100.00
7376;BME280;3728;42.266;24.944;2023-01-29T08:10:44;100055.81;;;4.76;100.00
7376;BME280;3728;42.266;24.944;2023-01-29T08:13:12;100048.38;;;4.84;100.00
7376;BME280;3728;42.266;24.944;2023-01-29T08:15:43;100050.50;;;4.93;100.00
7376;BME280;3728;42.266;24.944;2023-01-29T08:18:12;100057.09;;;5.10;100.00
7376;BME280;3728;42.266;24.944;2023-01-29T08:20:42;100051.88;;;5.05;100.00
7376;BME280;3728;42.266;24.944;2023-01-29T08:23:14;100052.31;;;4.92;100.00
7376;BME280;3728;42.266;24.944;2023-01-29T08:25:42;100052.59;;;4.96;100.00
7376;BME280;3728;42.266;24.944;2023-01-29T08:28:12;100060.50;;;5.11;100.00
7376;BME280;3728;42.266;24.944;2023-01-29T08:30:39;100057.91;;;5.11;100.00
7376;BME280;3728;42.266;24.944;2023-01-29T08:33:08;100059.97;;;5.14;100.00
7376;BME280;3728;42.266;24.944;2023-01-29T08:35:37;100057.63;;;5.12;100.00
7376;BME280;3728;42.266;24.944;2023-01-29T08:38:07;100058.09;;;5.04;100.00
7376;BME280;3728;42.266;24.944;2023-01-29T08:40:37;100064.63;;;5.12;100.00
7376;BME280;3728;42.266;24.944;2023-01-29T08:43:06;100064.97;;;5.25;100.00
7376;BME280;3728;42.266;24.944;2023-01-29T08:45:37;100058.09;;;5.46;100.00
7376;BME280;3728;42.266;24.944;2023-01-29T08:48:07;100063.59;;;5.60;100.00
7376;BME280;3728;42.266;24.944;2023-01-29T08:50:35;100066.00;;;5.71;100.00
7376;BME280;3728;42.266;24.944;2023-01-29T08:53:05;100064.03;;;5.93;98.90
7376;BME280;3728;42.266;24.944;2023-01-29T08:55:35;100069.84;;;6.36;96.56
7376;BME280;3728;42.266;24.944;2023-01-29T08:58:06;100073.75;;;6.48;93.38
7376;BME280;3728;42.266;24.944;2023-01-29T09:00:37;100071.44;;;6.77;92.31
7376;BME280;3728;42.266;24.944;2023-01-29T09:03:05;100074.78;;;7.18;90.70
7376;BME280;3728;42.266;24.944;2023-01-29T09:05:35;100073.41;;;7.45;87.40
7376;BME280;3728;42.266;24.944;2023-01-29T09:08:04;100069.41;;;7.63;83.95
7376;BME280;3728;42.266;24.944;2023-01-29T09:10:33;100073.38;;;7.61;84.66
7376;BME280;3728;42.266;24.944;2023-01-29T09:13:01;100076.97;;;7.75;83.75
7376;BME280;3728;42.266;24.944;2023-01-29T09:15:29;100075.09;;;7.80;83.20
7376;BME280;3728;42.266;24.944;2023-01-29T09:17:57;100071.72;;;7.80;81.80
7376;BME280;3728;42.266;24.944;2023-01-29T09:20:29;100075.56;;;7.97;80.26
7376;BME280;3728;42.266;24.944;2023-01-29T09:22:57;100067.78;;;7.82;83.02
7376;BME280;3728;42.266;24.944;2023-01-29T09:25:29;100069.66;;;7.72;85.11
7376;BME280;3728;42.266;24.944;2023-01-29T09:27:56;100069.72;;;7.51;85.22
7376;BME280;3728;42.266;24.944;2023-01-29T09:30:27;100070.97;;;7.74;85.03
7376;BME280;3728;42.266;24.944;2023-01-29T09:32:59;100071.31;;;7.52;85.51
7376;BME280;3728;42.266;24.944;2023-01-29T09:35:29;100069.78;;;7.46;86.16
7376;BME280;3728;42.266;24.944;2023-01-29T09:37:57;100066.91;;;7.38;86.08
7376;BME280;3728;42.266;24.944;2023-01-29T09:43:54;100062.78;;;7.27;86.80
7376;BME280;3728;42.266;24.944;2023-01-29T09:46:43;100058.34;;;7.32;87.36
7376;BME280;3728;42.266;24.944;2023-01-29T09:49:25;100060.16;;;7.37;88.42
7376;BME280;3728;42.266;24.944;2023-01-29T09:52:04;100052.56;;;7.45;86.74
7376;BME280;3728;42.266;24.944;2023-01-29T09:57:44;100045.47;;;7.61;86.53
7376;BME280;3728;42.266;24.944;2023-01-29T10:03:31;100043.28;;;7.83;84.32
7376;BME280;3728;42.266;24.944;2023-01-29T10:06:18;100041.19;;;7.85;86.14
7376;BME280;3728;42.266;24.944;2023-01-29T10:23:41;100014.38;;;8.86;77.27
7376;BME280;3728;42.266;24.944;2023-01-29T10:26:17;100017.28;;;8.84;76.57
7376;BME280;3728;42.266;24.944;2023-01-29T10:28:51;100012.06;;;8.84;78.13
7376;BME280;3728;42.266;24.944;2023-01-29T10:31:25;100010.41;;;8.93;77.43
7376;BME280;3728;42.266;24.944;2023-01-29T10:34:03;100011.97;;;9.18;76.39
7376;BME280;3728;42.266;24.944;2023-01-29T10:36:54;100003.31;;;9.23;75.02
7376;BME280;3728;42.266;24.944;2023-01-29T10:39:26;100000.94;;;8.98;75.58
7376;BME280;3728;42.266;24.944;2023-01-29T10:53:25;99987.16;;;8.35;76.25
7376;BME280;3728;42.266;24.944;2023-01-29T10:56:04;99986.69;;;8.27;77.92
7376;BME280;3728;42.266;24.944;2023-01-29T10:58:55;99983.06;;;8.23;79.59
7376;BME280;3728;42.266;24.944;2023-01-29T11:01:27;99978.84;;;8.33;77.62
7376;BME280;3728;42.266;24.944;2023-01-29T11:03:58;99978.44;;;8.49;77.57
7376;BME280;3728;42.266;24.944;2023-01-29T11:06:35;99970.59;;;8.49;76.68
7376;BME280;3728;42.266;24.944;2023-01-29T11:09:09;99968.91;;;7.96;80.18
7376;BME280;3728;42.266;24.944;2023-01-29T11:12:15;99968.47;;;7.84;80.11
7376;BME280;3728;42.266;24.944;2023-01-29T11:14:53;99969.13;;;7.61;78.73
7376;BME280;3728;42.266;24.944;2023-01-29T11:17:26;99962.69;;;7.87;78.82
7376;BME280;3728;42.266;24.944;2023-01-29T11:19:55;99963.09;;;7.65;80.13
7376;BME280;3728;42.266;24.944;2023-01-29T11:22:27;99956.00;;;8.14;78.60
7376;BME280;3728;42.266;24.944;2023-01-29T11:27:51;99954.09;;;7.86;80.04
7376;BME280;3728;42.266;24.944;2023-01-29T11:30:38;99944.16;;;7.93;77.67
7376;BME280;3728;42.266;24.944;2023-01-29T11:33:21;99941.88;;;8.15;78.48
7376;BME280;3728;42.266;24.944;2023-01-29T11:35:51;99946.50;;;7.90;81.92
7376;BME280;3728;42.266;24.944;2023-01-29T11:38:24;99943.59;;;8.35;79.89
7376;BME280;3728;42.266;24.944;2023-01-29T11:41:09;99929.41;;;8.12;80.74
7376;BME280;3728;42.266;24.944;2023-01-29T11:43:44;99935.81;;;7.91;82.17
7376;BME280;3728;42.266;24.944;2023-01-29T11:46:13;99930.25;;;8.03;80.48
7376;BME280;3728;42.266;24.944;2023-01-29T11:48:44;99926.56;;;8.43;78.93
7376;BME280;3728;42.266;24.944;2023-01-29T11:51:28;99923.81;;;8.24;80.91
7376;BME280;3728;42.266;24.944;2023-01-29T11:53:57;99931.53;;;8.68;76.43
7376;BME280;3728;42.266;24.944;2023-01-29T11:56:31;99930.31;;;9.08;77.23
7376;BME280;3728;42.266;24.944;2023-01-29T11:59:05;99930.78;;;9.52;75.37
7376;BME280;3728;42.266;24.944;2023-01-29T12:01:40;99935.03;;;10.36;72.16
7376;BME280;3728;42.266;24.944;2023-01-29T12:04:20;99935.09;;;10.90;68.07
7376;BME280;3728;42.266;24.944;2023-01-29T12:06:51;99929.28;;;10.66;66.68
7376;BME280;3728;42.266;24.944;2023-01-29T12:09:25;99918.94;;;10.10;69.35
7376;BME280;3728;42.266;24.944;2023-01-29T12:11:54;99918.00;;;9.69;73.25
7376;BME280;3728;42.266;24.944;2023-01-29T12:14:31;99913.69;;;9.78;69.56
7376;BME280;3728;42.266;24.944;2023-01-29T12:20:03;99907.91;;;9.44;72.82
7376;BME280;3728;42.266;24.944;2023-01-29T12:26:21;99907.53;;;10.20;67.96
7376;BME280;3728;42.266;24.944;2023-01-29T12:29:40;99901.16;;;9.94;66.82
7376;BME280;3728;42.266;24.944;2023-01-29T12:32:46;99899.44;;;9.10;69.71
7376;BME280;3728;42.266;24.944;2023-01-29T12:35:42;99896.09;;;8.85;70.96
7376;BME280;3728;42.266;24.944;2023-01-29T12:38:21;99894.25;;;8.62;73.45
7376;BME280;3728;42.266;24.944;2023-01-29T12:44:07;99894.47;;;8.66;73.18
7376;BME280;3728;42.266;24.944;2023-01-29T12:46:54;99904.28;;;8.50;73.56
7376;BME280;3728;42.266;24.944;2023-01-29T12:49:26;99893.69;;;8.65;73.47
7376;BME280;3728;42.266;24.944;2023-01-29T12:52:06;99903.66;;;8.87;72.16
7376;BME280;3728;42.266;24.944;2023-01-29T12:55:01;99907.91;;;9.02;73.08
7376;BME280;3728;42.266;24.944;2023-01-29T12:57:59;99898.84;;;9.18;70.86
7376;BME280;3728;42.266;24.944;2023-01-29T13:00:37;99912.66;;;9.60;69.48
7376;BME280;3728;42.266;24.944;2023-01-29T13:03:33;99903.09;;;9.51;67.71
7376;BME280;3728;42.266;24.944;2023-01-29T13:06:15;99911.06;;;9.22;68.94
7376;BME280;3728;42.266;24.944;2023-01-29T13:09:13;99908.03;;;8.91;69.11
7376;BME280;3728;42.266;24.944;2023-01-29T13:12:04;99910.03;;;9.00;68.88
7376;BME280;3728;42.266;24.944;2023-01-29T13:17:52;99915.75;;;8.78;71.58
7376;BME280;3728;42.266;24.944;2023-01-29T13:20:28;99912.97;;;8.69;74.77
7376;BME280;3728;42.266;24.944;2023-01-29T13:25:58;99905.75;;;8.33;80.67
7376;BME280;3728;42.266;24.944;2023-01-29T13:28:26;99909.44;;;7.98;84.08
7376;BME280;3728;42.266;24.944;2023-01-29T13:36:56;99915.06;;;7.76;86.96
7376;BME280;3728;42.266;24.944;2023-01-29T13:39:28;99909.84;;;7.76;87.31
7376;BME280;3728;42.266;24.944;2023-01-29T13:41:59;99912.00;;;7.64;88.20
7376;BME280;3728;42.266;24.944;2023-01-29T13:44:36;99907.81;;;7.63;88.87
7376;BME280;3728;42.266;24.944;2023-01-29T13:47:08;99908.16;;;7.90;88.46
7376;BME280;3728;42.266;24.944;2023-01-29T13:49:44;99916.66;;;8.06;87.17
7376;BME280;3728;42.266;24.944;2023-01-29T13:57:50;99927.94;;;7.96;87.32
7376;BME280;3728;42.266;24.944;2023-01-29T14:10:43;99916.53;;;7.87;88.98
7376;BME280;3728;42.266;24.944;2023-01-29T14:18:27;99922.56;;;7.39;91.51
7376;BME280;3728;42.266;24.944;2023-01-29T14:21:06;99913.75;;;7.30;91.99
7376;BME280;3728;42.266;24.944;2023-01-29T14:23:53;99922.34;;;7.30;91.98
7376;BME280;3728;42.266;24.944;2023-01-29T14:37:32;99937.47;;;7.28;90.96
7376;BME280;3728;42.266;24.944;2023-01-29T14:40:25;99938.03;;;7.15;90.77
7376;BME280;3728;42.266;24.944;2023-01-29T14:43:18;99937.66;;;6.78;93.48
7376;BME280;3728;42.266;24.944;2023-01-29T14:45:47;99937.88;;;6.81;94.13
7376;BME280;3728;42.266;24.944;2023-01-29T14:48:34;99937.88;;;6.92;93.15
7376;BME280;3728;42.266;24.944;2023-01-29T14:51:19;99933.19;;;6.78;93.26
7376;BME280;3728;42.266;24.944;2023-01-29T14:56:36;99941.50;;;6.90;93.32
7376;BME280;3728;42.266;24.944;2023-01-29T14:59:22;99940.63;;;7.20;90.86
7376;BME280;3728;42.266;24.944;2023-01-29T15:02:14;99935.78;;;6.94;92.49
7376;BME280;3728;42.266;24.944;2023-01-29T15:04:49;99942.25;;;7.01;91.46
7376;BME280;3728;42.266;24.944;2023-01-29T15:07:31;99945.69;;;6.86;93.03
7376;BME280;3728;42.266;24.944;2023-01-29T15:10:10;99945.63;;;7.07;91.78
7376;BME280;3728;42.266;24.944;2023-01-29T15:13:03;99942.00;;;6.93;90.98
7376;BME280;3728;42.266;24.944;2023-01-29T15:16:05;99953.00;;;6.64;93.33
7376;BME280;3728;42.266;24.944;2023-01-29T15:18:47;99955.38;;;6.51;94.93
7376;BME280;3728;42.266;24.944;2023-01-29T15:21:21;99963.19;;;6.41;94.75
7376;BME280;3728;42.266;24.944;2023-01-29T15:24:03;99960.56;;;6.41;95.45
7376;BME280;3728;42.266;24.944;2023-01-29T15:26:32;99967.31;;;6.82;94.14
7376;BME280;3728;42.266;24.944;2023-01-29T15:29:02;99965.75;;;6.76;93.19
7376;BME280;3728;42.266;24.944;2023-01-29T15:31:31;99965.53;;;6.32;95.24
7376;BME280;3728;42.266;24.944;2023-01-29T15:34:05;99964.19;;;6.65;94.88
7376;BME280;3728;42.266;24.944;2023-01-29T15:36:36;99970.19;;;6.55;94.64
7376;BME280;3728;42.266;24.944;2023-01-29T15:39:25;99970.75;;;6.42;95.62
7376;BME280;3728;42.266;24.944;2023-01-29T15:42:13;99967.34;;;6.27;96.31
7376;BME280;3728;42.266;24.944;2023-01-29T15:44:51;99963.44;;;6.44;95.18
7376;BME280;3728;42.266;24.944;2023-01-29T15:47:30;99976.19;;;6.66;93.75
7376;BME280;3728;42.266;24.944;2023-01-29T15:49:59;99975.16;;;6.47;94.45
7376;BME280;3728;42.266;24.944;2023-01-29T15:52:30;99977.75;;;6.37;95.49
7376;BME280;3728;42.266;24.944;2023-01-29T15:55:04;99990.50;;;6.28;95.83
7376;BME280;3728;42.266;24.944;2023-01-29T15:57:36;99987.88;;;6.13;97.73
7376;BME280;3728;42.266;24.944;2023-01-29T16:00:26;99993.09;;;6.28;98.00
7376;BME280;3728;42.266;24.944;2023-01-29T16:03:13;99986.06;;;6.03;98.45
7376;BME280;3728;42.266;24.944;2023-01-29T16:05:49;99996.22;;;6.35;96.97
7376;BME280;3728;42.266;24.944;2023-01-29T16:08:23;99989.44;;;6.04;98.24
7376;BME280;3728;42.266;24.944;2023-01-29T16:10:55;99997.72;;;5.96;100.00
7376;BME280;3728;42.266;24.944;2023-01-29T16:13:29;100000.63;;;6.19;97.35
7376;BME280;3728;42.266;24.944;2023-01-29T16:16:20;99998.50;;;5.96;98.79
7376;BME280;3728;42.266;24.944;2023-01-29T16:18:52;99999.88;;;6.24;97.01